Clarksdale, MS (38614)

4:04 AM CST on February 27, 2017 (GMT -0600)
Clarksdale | | Change Station

Elev 164 ft 34.10 °N, 90.61 °W | Updated 6 seconds ago

Rain
Rain
48.2 °F
Feels Like 46 °F
N
5.0
Wind Variable Wind from East
Gusts 9.0 mph

Today
High -- | Low -- °F
--% Chance of Precip.
Yesterday
High -- | Low -- °F
Precip. -- in
Pressure 30.10 in
Visibility 4.0 miles
Clouds Mostly Cloudy 600 ft
Mostly Cloudy 1700 ft
Overcast 4800 ft
Windchill 46 °F
Dew Point 47 °F
Humidity 95%
Rainfall 0.74 in
Snow Depth Not available.
6:33 AM 5:57 PM
New Moon, 1% visible
METAR KRNV 270935Z AUTO 01015G22KT 4SM VCTSRA BKN006 BKN017 OVC048 09/09 A3010 RMK AO2 LTG DSNT SE THRU SW T00900090
Pressure 30.10 in
Visibility 4.0 miles
Clouds Mostly Cloudy 600 ft
Mostly Cloudy 1700 ft
Overcast 4800 ft
Windchill 46 °F
Dew Point 47 °F
Humidity 95%
Rainfall 0.74 in
Snow Depth Not available.
6:33 AM 5:57 PM
New Moon, 1% visible
METAR KRNV 270935Z AUTO 01015G22KT 4SM VCTSRA BKN006 BKN017 OVC048 09/09 A3010 RMK AO2 LTG DSNT SE THRU SW T00900090

Get Your Daily Forecast Email!

Thanks for signing up!

Be on the lookout for a verification email in your inbox.

You'll start receiving the daily forecast at 8 AM.

×

10-Day Weather Forecast

Almanac

Astronomy

Feb. 27, 2017 Rise Set
Actual Time
Civil Twilight
Nautical Twilight
Astronomical Twilight
Moon
Length of Visible Light
Length of Day
Tomorrow will be .
, % of the Moon is Illuminated

Today's Extremes

State Highs State Lows

Community

WunderPhotos

Upload Photos

1,962,540 photos uploaded!

WunderBlog® & News

Nearby

Air Quality

  Air Quality AQ Index Pollutant
Not available.

Snow Depth

Station Depth Elevation

Earthquake Activity

City Distance Mag. Time & Date
Minimum magnitude displayed is 2.5.

Coastal Water Temperatures

Place Temperature

Stations

Nearby Weather Stations

Station Location Temp. Windchill Dew Point Humidity Wind Precip. Elev Updated Type
                   

Watches & Warnings

There are currently no watches in effect.